Time;durP1;ratioP1;P1;durP2;ratioP2;P2;SDS_P1;SDS_P2;PMS_P1;PMS_P2;Temp;Humidity;BMP_temperature;BMP_pressure;BME280_temperature;BME280_humidity;BME280_pressure;Samples;Min_cycle;Max_cycle;Signal;HPM_P1;HPM_P2
2023/01/01 00:01:09;;;;;;;253.27;145.35;;;;;;;;;;4848448;29;20065;-61
2023/01/01 00:03:35;;;;;;;271.77;154.50;;;;;;;;;;4848256;29;20041;-61
2023/01/01 00:06:07;;;;;;;330.80;195.52;;;;;;;;;;4849021;29;20029;-62
2023/01/01 00:08:33;;;;;;;432.95;260.05;;;;;;;;;;4851419;29;20042;-61
2023/01/01 00:11:02;;;;;;;437.70;261.90;;;;;;;;;;4850445;29;20082;-60
2023/01/01 00:13:27;;;;;;;369.92;230.13;;;;;;;;;;4850109;29;20037;-60
2023/01/01 00:15:52;;;;;;;411.35;240.07;;;;;;;;;;4850544;29;20465;-61
2023/01/01 00:18:17;;;;;;;354.60;207.55;;;;;;;;;;4849676;29;20065;-61
2023/01/01 00:20:43;;;;;;;265.58;149.38;;;;;;;;;;4847642;29;20057;-61
2023/01/01 00:23:11;;;;;;;190.48;107.88;;;;;;;;;;4849618;29;20052;-61
2023/01/01 00:25:38;;;;;;;214.55;119.88;;;;;;;;;;4847118;29;20419;-62
2023/01/01 00:28:04;;;;;;;206.70;120.43;;;;;;;;;;4849511;29;20468;-61
2023/01/01 00:30:29;;;;;;;168.82;93.53;;;;;;;;;;4881048;29;20202;-61
2023/01/01 00:32:54;;;;;;;158.00;91.25;;;;;;;;;;4850100;29;20061;-61
2023/01/01 00:35:19;;;;;;;154.20;86.05;;;;;;;;;;4851220;29;20173;-61
2023/01/01 00:37:45;;;;;;;123.93;75.60;;;;;;;;;;4846868;29;20034;-62
2023/01/01 00:40:10;;;;;;;122.38;70.35;;;;;;;;;;4847705;29;20125;-61
2023/01/01 00:42:39;;;;;;;110.85;63.78;;;;;;;;;;4848324;29;20033;-61
2023/01/01 00:45:05;;;;;;;123.82;66.50;;;;;;;;;;4847225;29;20432;-62
2023/01/01 00:47:30;;;;;;;97.38;55.95;;;;;;;;;;4848434;29;20583;-61
2023/01/01 00:49:55;;;;;;;92.45;52.60;;;;;;;;;;4846937;29;20112;-61
2023/01/01 00:52:20;;;;;;;90.90;50.33;;;;;;;;;;4849331;29;20086;-62
2023/01/01 00:54:46;;;;;;;85.40;50.03;;;;;;;;;;4850051;29;20038;-61
2023/01/01 00:57:11;;;;;;;79.85;46.63;;;;;;;;;;4848791;29;20037;-60
2023/01/01 00:59:36;;;;;;;102.25;56.10;;;;;;;;;;4849207;29;20038;-61
2023/01/01 01:02:02;;;;;;;87.45;49.83;;;;;;;;;;4845186;29;20417;-61
2023/01/01 01:04:27;;;;;;;98.28;55.17;;;;;;;;;;4847288;29;20091;-61
2023/01/01 01:06:52;;;;;;;97.40;56.83;;;;;;;;;;4843876;29;20100;-61
2023/01/01 01:09:17;;;;;;;122.32;64.63;;;;;;;;;;4845515;29;20484;-61
2023/01/01 01:11:43;;;;;;;112.05;62.20;;;;;;;;;;4848169;29;20033;-60
2023/01/01 01:14:08;;;;;;;123.82;65.03;;;;;;;;;;4846936;29;20120;-60
2023/01/01 01:16:34;;;;;;;113.80;61.78;;;;;;;;;;4847937;29;20025;-61
2023/01/01 01:19:00;;;;;;;83.63;47.05;;;;;;;;;;4876590;29;20041;-61
2023/01/01 01:21:27;;;;;;;73.93;43.97;;;;;;;;;;4847049;29;20057;-60
2023/01/01 01:23:53;;;;;;;77.07;43.55;;;;;;;;;;4849550;29;20068;-61
2023/01/01 01:26:20;;;;;;;83.53;44.92;;;;;;;;;;4849151;29;20065;-61
2023/01/01 01:28:45;;;;;;;79.05;44.25;;;;;;;;;;4849192;29;21049;-61
2023/01/01 01:31:11;;;;;;;90.70;47.03;;;;;;;;;;4850442;29;20045;-61
2023/01/01 01:33:36;;;;;;;74.72;39.28;;;;;;;;;;4849067;29;20069;-60
2023/01/01 01:36:02;;;;;;;71.75;36.65;;;;;;;;;;4848530;29;20040;-61
2023/01/01 01:38:28;;;;;;;63.67;36.22;;;;;;;;;;4847989;29;20073;-60
2023/01/01 01:40:53;;;;;;;63.30;36.17;;;;;;;;;;4848125;29;20048;-60
2023/01/01 01:43:24;;;;;;;57.35;32.78;;;;;;;;;;4850102;29;20323;-60
2023/01/01 01:45:51;;;;;;;40.67;22.35;;;;;;;;;;4845968;29;20109;-61
2023/01/01 01:48:17;;;;;;;38.65;22.70;;;;;;;;;;4859386;29;20473;-61
2023/01/01 01:50:45;;;;;;;29.60;17.33;;;;;;;;;;4848972;29;20037;-61
2023/01/01 01:53:23;;;;;;;31.88;14.90;;;;;;;;;;4849707;29;20052;-61
2023/01/01 01:55:53;;;;;;;17.27;9.82;;;;;;;;;;4852384;29;20037;-61
2023/01/01 01:58:19;;;;;;;16.02;8.50;;;;;;;;;;4852191;29;20250;-60
2023/01/01 02:00:44;;;;;;;17.15;8.50;;;;;;;;;;4880410;29;20038;-60
2023/01/01 02:03:21;;;;;;;14.77;8.25;;;;;;;;;;4853352;29;20034;-60
2023/01/01 02:05:47;;;;;;;15.75;8.75;;;;;;;;;;4851697;29;20029;-61
2023/01/01 02:08:14;;;;;;;13.90;8.25;;;;;;;;;;4850935;29;20038;-61
2023/01/01 02:10:40;;;;;;;15.10;8.32;;;;;;;;;;4844812;29;20565;-60
2023/01/01 02:13:05;;;;;;;17.35;8.70;;;;;;;;;;4837626;29;20321;-61
2023/01/01 02:15:35;;;;;;;14.10;8.13;;;;;;;;;;4848017;29;20022;-60
2023/01/01 02:18:11;;;;;;;15.90;8.18;;;;;;;;;;4852760;29;20133;-62
2023/01/01 02:20:55;;;;;;;14.63;8.30;;;;;;;;;;4846415;29;20029;-60
2023/01/01 02:23:37;;;;;;;15.55;7.75;;;;;;;;;;4846366;29;20025;-61
2023/01/01 02:26:21;;;;;;;13.10;7.28;;;;;;;;;;4852159;29;20060;-60
2023/01/01 02:28:52;;;;;;;13.27;7.13;;;;;;;;;;4853803;29;20093;-61
2023/01/01 02:31:21;;;;;;;12.02;7.28;;;;;;;;;;4845951;29;20037;-60
2023/01/01 02:33:48;;;;;;;13.40;7.07;;;;;;;;;;4846280;29;20069;-61
2023/01/01 02:36:13;;;;;;;13.15;7.78;;;;;;;;;;4843295;29;20013;-60
2023/01/01 02:38:40;;;;;;;13.20;7.30;;;;;;;;;;4848485;29;20746;-60
2023/01/01 02:41:08;;;;;;;11.85;6.70;;;;;;;;;;4850801;29;20098;-60
2023/01/01 02:43:34;;;;;;;13.43;6.85;;;;;;;;;;4843173;29;20037;-60
2023/01/01 02:46:04;;;;;;;13.20;6.57;;;;;;;;;;4852701;29;20045;-60
2023/01/01 02:48:37;;;;;;;11.35;6.55;;;;;;;;;;4843500;29;20034;-60
2023/01/01 02:51:05;;;;;;;10.35;6.47;;;;;;;;;;4842543;29;20526;-60
2023/01/01 02:53:36;;;;;;;13.55;6.90;;;;;;;;;;4852094;29;20037;-60
2023/01/01 02:56:01;;;;;;;13.90;7.63;;;;;;;;;;4843846;29;20120;-61
2023/01/01 03:01:42;;;;;;;13.18;7.63;;;;;;;;;;4899410;29;20427;-60
2023/01/01 03:04:26;;;;;;;13.77;7.25;;;;;;;;;;4894164;29;20479;-61
2023/01/01 03:07:00;;;;;;;13.90;7.20;;;;;;;;;;4862926;29;20673;-60
2023/01/01 03:09:41;;;;;;;14.50;6.88;;;;;;;;;;4848491;29;20179;-60
2023/01/01 03:12:22;;;;;;;12.75;6.63;;;;;;;;;;4842849;29;20037;-60
2023/01/01 03:15:00;;;;;;;13.90;6.75;;;;;;;;;;4844255;29;20022;-61
2023/01/01 03:17:28;;;;;;;12.88;7.40;;;;;;;;;;4849946;29;20129;-61
2023/01/01 03:19:55;;;;;;;10.75;6.60;;;;;;;;;;4843290;29;20041;-61
2023/01/01 03:22:23;;;;;;;11.80;6.65;;;;;;;;;;4850139;29;20065;-61
2023/01/01 03:24:51;;;;;;;14.95;6.85;;;;;;;;;;4875525;29;20397;-61
2023/01/01 03:27:56;;;;;;;11.70;6.72;;;;;;;;;;4840287;29;20473;-60
2023/01/01 03:30:22;;;;;;;13.30;6.32;;;;;;;;;;4869359;29;20247;-61
2023/01/01 03:33:14;;;;;;;13.02;6.97;;;;;;;;;;4871325;29;20071;-61
2023/01/01 03:35:47;;;;;;;9.15;5.97;;;;;;;;;;4849380;29;20168;-61
2023/01/01 03:38:16;;;;;;;10.93;6.68;;;;;;;;;;4848698;29;20085;-61
2023/01/01 03:40:42;;;;;;;16.85;6.63;;;;;;;;;;4842802;29;20029;-61
2023/01/01 03:43:12;;;;;;;11.73;6.55;;;;;;;;;;4843605;29;20041;-61
2023/01/01 03:45:40;;;;;;;10.05;6.47;;;;;;;;;;4849981;29;20470;-60
2023/01/01 03:48:05;;;;;;;11.60;6.22;;;;;;;;;;4844659;29;21301;-61
2023/01/01 03:50:48;;;;;;;9.32;6.07;;;;;;;;;;4848021;29;20044;-61
2023/01/01 03:53:36;;;;;;;11.80;6.80;;;;;;;;;;4871660;29;20481;-61
2023/01/01 03:56:05;;;;;;;10.45;5.65;;;;;;;;;;4845183;29;20045;-60
2023/01/01 03:58:39;;;;;;;11.00;6.30;;;;;;;;;;4849311;29;20140;-60
2023/01/01 04:01:11;;;;;;;10.35;6.35;;;;;;;;;;4842306;29;20112;-60
2023/01/01 04:03:37;;;;;;;11.88;5.40;;;;;;;;;;4842145;29;20184;-60
2023/01/01 04:06:02;;;;;;;9.30;5.35;;;;;;;;;;4849260;29;20045;-60
2023/01/01 04:08:28;;;;;;;12.13;6.35;;;;;;;;;;4840974;29;20037;-61
2023/01/01 04:10:58;;;;;;;9.38;5.30;;;;;;;;;;4848541;29;20042;-61
2023/01/01 04:13:23;;;;;;;10.73;5.40;;;;;;;;;;4841109;29;20094;-60
2023/01/01 04:15:48;;;;;;;9.75;5.18;;;;;;;;;;4841993;29;20026;-60
2023/01/01 04:18:14;;;;;;;10.05;5.90;;;;;;;;;;4848932;29;20041;-60
2023/01/01 04:20:39;;;;;;;8.23;5.20;;;;;;;;;;4839030;29;20110;-61
2023/01/01 04:23:04;;;;;;;10.57;5.20;;;;;;;;;;4846686;29;20060;-60
2023/01/01 04:25:30;;;;;;;9.55;4.95;;;;;;;;;;4842321;29;20756;-60
2023/01/01 04:27:57;;;;;;;10.27;5.22;;;;;;;;;;4841723;29;20409;-60
2023/01/01 04:30:22;;;;;;;9.13;4.63;;;;;;;;;;4847260;29;20088;-60
2023/01/01 04:32:47;;;;;;;7.93;4.32;;;;;;;;;;4842098;29;20057;-61
2023/01/01 04:35:13;;;;;;;10.50;4.95;;;;;;;;;;4877417;29;20048;-61
2023/01/01 04:37:39;;;;;;;9.43;4.38;;;;;;;;;;4841488;29;20033;-61
2023/01/01 04:40:05;;;;;;;10.38;4.60;;;;;;;;;;4839909;29;20029;-61
2023/01/01 04:42:30;;;;;;;10.18;4.68;;;;;;;;;;4847022;29;20121;-61
2023/01/01 04:44:56;;;;;;;10.02;4.80;;;;;;;;;;4870351;29;20473;-60
2023/01/01 04:47:21;;;;;;;8.95;4.30;;;;;;;;;;4848656;29;20477;-60
2023/01/01 04:49:46;;;;;;;7.85;4.40;;;;;;;;;;4843012;29;20044;-60
2023/01/01 04:52:12;;;;;;;12.35;5.35;;;;;;;;;;4843186;29;20396;-60
2023/01/01 04:54:37;;;;;;;6.88;4.22;;;;;;;;;;4874769;29;20032;-60
2023/01/01 04:57:02;;;;;;;10.85;4.57;;;;;;;;;;4842518;29;20026;-60
2023/01/01 04:59:28;;;;;;;7.32;4.10;;;;;;;;;;4847999;29;20033;-61
2023/01/01 05:01:54;;;;;;;8.10;4.53;;;;;;;;;;4843254;29;20030;-61
2023/01/01 05:04:19;;;;;;;6.78;3.85;;;;;;;;;;4840505;29;20129;-60
2023/01/01 05:06:44;;;;;;;10.60;4.45;;;;;;;;;;4846797;29;20117;-60
2023/01/01 05:09:09;;;;;;;6.88;3.80;;;;;;;;;;4841828;29;20121;-60
2023/01/01 05:11:35;;;;;;;6.65;3.67;;;;;;;;;;4847032;29;20344;-61
2023/01/01 05:14:01;;;;;;;9.18;3.92;;;;;;;;;;4843155;29;20108;-60
2023/01/01 05:16:30;;;;;;;7.65;3.70;;;;;;;;;;4841561;29;20034;-60
2023/01/01 05:18:56;;;;;;;8.68;3.75;;;;;;;;;;4845566;29;20039;-60
2023/01/01 05:21:22;;;;;;;9.77;4.15;;;;;;;;;;4840996;29;20041;-60
2023/01/01 05:23:51;;;;;;;6.78;3.30;;;;;;;;;;4842804;29;20061;-60
2023/01/01 05:26:18;;;;;;;9.48;3.90;;;;;;;;;;4844952;29;20042;-60
2023/01/01 05:28:43;;;;;;;10.25;3.42;;;;;;;;;;4840274;29;20382;-61
2023/01/01 05:31:11;;;;;;;5.68;3.33;;;;;;;;;;4847197;29;20506;-62
2023/01/01 05:33:36;;;;;;;6.28;3.47;;;;;;;;;;4844201;29;20541;-61
2023/01/01 05:36:02;;;;;;;5.43;3.10;;;;;;;;;;4842257;29;20158;-61
2023/01/01 05:38:28;;;;;;;5.63;3.45;;;;;;;;;;4848057;29;20045;-61
2023/01/01 05:40:53;;;;;;;6.68;3.17;;;;;;;;;;4841847;29;20310;-61
2023/01/01 05:43:18;;;;;;;7.43;3.55;;;;;;;;;;4848726;29;20034;-61
2023/01/01 05:45:44;;;;;;;6.70;3.25;;;;;;;;;;4842634;29;20382;-61
2023/01/01 05:48:10;;;;;;;8.60;3.70;;;;;;;;;;4846663;29;20025;-61
2023/01/01 05:50:35;;;;;;;7.55;3.67;;;;;;;;;;4849196;29;20068;-61
2023/01/01 05:53:00;;;;;;;8.20;3.35;;;;;;;;;;4836105;29;20418;-60
2023/01/01 05:55:26;;;;;;;9.35;5.35;;;;;;;;;;4843515;29;20041;-61
2023/01/01 05:57:54;;;;;;;10.55;3.78;;;;;;;;;;4869639;29;20452;-61
2023/01/01 06:00:19;;;;;;;6.45;3.50;;;;;;;;;;4840483;29;20041;-60
2023/01/01 06:02:44;;;;;;;5.85;3.30;;;;;;;;;;4845850;29;20057;-60
2023/01/01 06:05:10;;;;;;;5.88;2.90;;;;;;;;;;4842347;29;20497;-60
2023/01/01 06:07:35;;;;;;;4.72;2.90;;;;;;;;;;4849358;29;20044;-59
2023/01/01 06:10:00;;;;;;;6.30;3.17;;;;;;;;;;4840857;29;20029;-60
2023/01/01 06:12:26;;;;;;;6.38;3.25;;;;;;;;;;4867912;29;20034;-60
2023/01/01 06:14:51;;;;;;;5.85;2.70;;;;;;;;;;4844589;29;20029;-60
2023/01/01 06:17:19;;;;;;;7.68;2.83;;;;;;;;;;4839752;29;20064;-59
2023/01/01 06:19:45;;;;;;;4.53;2.85;;;;;;;;;;4845119;29;20133;-60
2023/01/01 06:22:10;;;;;;;4.97;2.78;;;;;;;;;;4838285;29;20034;-60
2023/01/01 06:24:35;;;;;;;4.97;2.78;;;;;;;;;;4838259;29;20113;-60
2023/01/01 06:27:00;;;;;;;10.43;3.20;;;;;;;;;;4847643;29;20508;-60
2023/01/01 06:29:26;;;;;;;7.35;3.22;;;;;;;;;;4843775;29;20577;-60
2023/01/01 06:31:51;;;;;;;6.10;2.67;;;;;;;;;;4845698;29;20350;-60
2023/01/01 06:34:16;;;;;;;5.32;2.50;;;;;;;;;;4869405;29;20074;-60
2023/01/01 06:36:41;;;;;;;4.82;2.80;;;;;;;;;;4841745;29;20036;-60
2023/01/01 06:39:07;;;;;;;5.72;2.92;;;;;;;;;;4846814;29;20044;-60
2023/01/01 06:41:33;;;;;;;6.40;2.90;;;;;;;;;;4844374;29;20033;-60
2023/01/01 06:43:58;;;;;;;5.60;2.55;;;;;;;;;;4853589;29;20048;-60
2023/01/01 06:46:28;;;;;;;6.57;2.90;;;;;;;;;;4843605;29;20457;-60
2023/01/01 06:48:57;;;;;;;7.97;2.67;;;;;;;;;;4843197;29;20480;-60
2023/01/01 06:51:24;;;;;;;4.75;2.50;;;;;;;;;;4847806;29;20063;-60
2023/01/01 06:53:49;;;;;;;6.25;2.90;;;;;;;;;;4845374;29;20057;-60
2023/01/01 06:56:15;;;;;;;8.45;2.90;;;;;;;;;;4850606;29;20458;-60
2023/01/01 06:58:40;;;;;;;4.70;2.63;;;;;;;;;;4844054;29;20033;-60
2023/01/01 07:01:08;;;;;;;7.68;3.10;;;;;;;;;;4844664;29;20430;-59
2023/01/01 07:03:34;;;;;;;5.50;2.50;;;;;;;;;;4849097;29;20046;-60
2023/01/01 07:05:59;;;;;;;5.85;2.67;;;;;;;;;;4842867;29;20104;-59
2023/01/01 07:08:24;;;;;;;6.03;2.60;;;;;;;;;;4849840;29;20048;-59
2023/01/01 07:10:50;;;;;;;5.07;2.60;;;;;;;;;;4844721;29;20449;-59
2023/01/01 07:13:15;;;;;;;9.65;2.92;;;;;;;;;;4843392;29;20033;-62
2023/01/01 07:15:43;;;;;;;8.40;3.00;;;;;;;;;;4846028;29;20133;-59
2023/01/01 07:18:08;;;;;;;6.23;2.70;;;;;;;;;;4843132;29;20037;-59
2023/01/01 07:20:33;;;;;;;7.40;3.33;;;;;;;;;;4851712;29;20033;-59
2023/01/01 07:23:01;;;;;;;6.55;2.95;;;;;;;;;;4844447;29;20041;-59
2023/01/01 07:25:26;;;;;;;5.47;2.53;;;;;;;;;;4844293;29;20041;-59
2023/01/01 07:27:52;;;;;;;6.75;2.60;;;;;;;;;;4850500;29;20037;-59
2023/01/01 07:30:17;;;;;;;5.55;2.35;;;;;;;;;;4843784;29;20048;-59
2023/01/01 07:32:42;;;;;;;4.78;2.67;;;;;;;;;;4846373;29;20034;-61
2023/01/01 07:35:08;;;;;;;5.30;2.33;;;;;;;;;;4842555;29;20053;-65
2023/01/01 07:37:33;;;;;;;5.57;2.60;;;;;;;;;;4841085;29;20055;-61
2023/01/01 07:39:58;;;;;;;6.47;2.75;;;;;;;;;;4846598;29;20037;-61
2023/01/01 07:42:23;;;;;;;6.25;2.75;;;;;;;;;;4843164;29;20030;-61
2023/01/01 07:44:49;;;;;;;6.13;3.38;;;;;;;;;;4849257;29;20061;-61
2023/01/01 07:47:24;;;;;;;5.07;2.40;;;;;;;;;;4841355;29;20043;-60
2023/01/01 07:49:50;;;;;;;7.82;2.60;;;;;;;;;;4842389;29;20525;-60
2023/01/01 07:52:16;;;;;;;7.38;2.60;;;;;;;;;;4847381;29;20137;-60
2023/01/01 07:54:41;;;;;;;5.75;2.60;;;;;;;;;;4841843;29;20496;-60
2023/01/01 07:57:06;;;;;;;6.57;2.70;;;;;;;;;;4848657;29;20029;-61
2023/01/01 07:59:32;;;;;;;5.53;2.78;;;;;;;;;;4843110;29;20086;-62
2023/01/01 08:02:00;;;;;;;7.25;2.72;;;;;;;;;;4845690;29;20059;-61
2023/01/01 08:04:25;;;;;;;7.95;2.63;;;;;;;;;;4850010;29;20026;-61
2023/01/01 08:06:54;;;;;;;7.93;3.05;;;;;;;;;;4842498;29;20037;-61
2023/01/01 08:09:19;;;;;;;6.07;2.95;;;;;;;;;;4844497;29;21768;-61
2023/01/01 08:11:44;;;;;;;5.45;2.88;;;;;;;;;;4843358;29;21150;-61
2023/01/01 08:14:10;;;;;;;5.28;2.80;;;;;;;;;;4845496;29;20068;-61
2023/01/01 08:16:35;;;;;;;8.40;2.50;;;;;;;;;;4851181;29;20060;-61
2023/01/01 08:19:00;;;;;;;4.28;2.60;;;;;;;;;;4843985;29;20043;-61
2023/01/01 08:21:26;;;;;;;8.63;2.92;;;;;;;;;;4847129;29;20029;-61
2023/01/01 08:23:51;;;;;;;5.97;2.80;;;;;;;;;;4846647;29;20112;-61
2023/01/01 08:26:25;;;;;;;5.80;2.85;;;;;;;;;;4842041;29;20036;-61
2023/01/01 08:28:50;;;;;;;7.65;3.22;;;;;;;;;;4848174;29;20037;-61
2023/01/01 08:31:15;;;;;;;6.22;3.50;;;;;;;;;;4844532;29;20060;-61
2023/01/01 08:33:40;;;;;;;5.60;2.90;;;;;;;;;;4870150;29;20100;-61
2023/01/01 08:36:07;;;;;;;6.60;2.45;;;;;;;;;;4848752;29;20073;-61
2023/01/01 08:38:32;;;;;;;7.75;2.78;;;;;;;;;;4844486;29;20516;-61
2023/01/01 08:40:58;;;;;;;7.43;3.17;;;;;;;;;;4848256;29;20140;-61
2023/01/01 08:43:23;;;;;;;7.80;2.85;;;;;;;;;;4842595;29;20017;-61
2023/01/01 08:45:48;;;;;;;10.18;3.40;;;;;;;;;;4842635;29;20374;-61
2023/01/01 08:48:13;;;;;;;6.78;2.75;;;;;;;;;;4849567;29;20033;-61
2023/01/01 08:50:39;;;;;;;5.70;3.03;;;;;;;;;;4840435;29;20081;-59
2023/01/01 08:53:04;;;;;;;6.55;3.20;;;;;;;;;;4849008;29;20077;-61
2023/01/01 08:55:30;;;;;;;9.25;3.30;;;;;;;;;;4840465;29;20058;-61
2023/01/01 08:57:55;;;;;;;6.72;3.05;;;;;;;;;;4843196;29;20041;-61
2023/01/01 09:00:20;;;;;;;7.93;3.30;;;;;;;;;;4847017;29;20093;-61
2023/01/01 09:02:46;;;;;;;5.43;2.70;;;;;;;;;;4854091;29;20524;-61
2023/01/01 09:05:11;;;;;;;6.80;3.40;;;;;;;;;;4848066;29;20036;-61
2023/01/01 09:07:39;;;;;;;7.43;3.10;;;;;;;;;;4841487;29;20025;-61
2023/01/01 09:10:05;;;;;;;8.70;3.25;;;;;;;;;;4840964;29;20048;-61
2023/01/01 09:12:30;;;;;;;7.20;3.08;;;;;;;;;;4848161;29;20041;-61
2023/01/01 09:14:55;;;;;;;7.35;2.92;;;;;;;;;;4871611;29;20029;-61
2023/01/01 09:17:21;;;;;;;5.47;3.38;;;;;;;;;;4848859;29;20121;-61
2023/01/01 09:19:46;;;;;;;9.00;3.22;;;;;;;;;;4842294;29;20048;-61
2023/01/01 09:22:11;;;;;;;6.13;2.95;;;;;;;;;;4841201;29;20033;-59
2023/01/01 09:24:37;;;;;;;5.63;2.70;;;;;;;;;;4844520;29;20034;-61
2023/01/01 09:27:02;;;;;;;6.90;2.92;;;;;;;;;;4843378;29;20038;-61
2023/01/01 09:29:27;;;;;;;5.25;2.78;;;;;;;;;;4847677;29;20086;-61
2023/01/01 09:31:53;;;;;;;8.15;3.65;;;;;;;;;;4840052;29;20034;-62
2023/01/01 09:34:18;;;;;;;7.60;3.22;;;;;;;;;;4840952;29;20533;-61
2023/01/01 09:36:44;;;;;;;9.23;2.83;;;;;;;;;;4848833;29;20041;-61
2023/01/01 09:39:14;;;;;;;7.32;3.30;;;;;;;;;;4841960;29;20037;-61
2023/01/01 09:41:39;;;;;;;6.78;3.10;;;;;;;;;;4847547;29;20429;-59
2023/01/01 09:44:16;;;;;;;5.85;2.60;;;;;;;;;;4841357;29;20029;-60
2023/01/01 09:46:42;;;;;;;5.88;3.10;;;;;;;;;;4840987;29;20108;-60
2023/01/01 09:49:16;;;;;;;7.28;2.90;;;;;;;;;;4878616;29;20037;-60
2023/01/01 09:51:42;;;;;;;8.38;3.38;;;;;;;;;;4841091;29;20056;-60
2023/01/01 09:54:15;;;;;;;11.13;3.20;;;;;;;;;;4844402;29;20041;-60
2023/01/01 09:56:43;;;;;;;9.32;2.83;;;;;;;;;;4848159;29;20561;-60
2023/01/01 09:59:09;;;;;;;10.32;3.00;;;;;;;;;;4844781;29;20048;-62
2023/01/01 10:01:40;;;;;;;10.80;3.30;;;;;;;;;;4846367;29;20059;-60
2023/01/01 10:04:20;;;;;;;6.50;2.85;;;;;;;;;;4840750;29;20604;-60
2023/01/01 10:06:52;;;;;;;8.27;2.90;;;;;;;;;;4837791;29;20505;-60
2023/01/01 10:09:23;;;;;;;5.90;3.10;;;;;;;;;;4843038;29;20065;-60
2023/01/01 10:11:59;;;;;;;8.57;3.08;;;;;;;;;;4838350;29;20557;-60
2023/01/01 10:14:25;;;;;;;13.13;3.67;;;;;;;;;;4840480;29;20048;-60
2023/01/01 10:16:54;;;;;;;8.57;3.83;;;;;;;;;;4849533;29;20037;-60
2023/01/01 10:19:37;;;;;;;112.68;75.43;;;;;;;;;;4841006;29;20410;-60
2023/01/01 10:22:06;;;;;;;16.63;10.15;;;;;;;;;;4848745;29;20426;-60
2023/01/01 10:24:31;;;;;;;9.00;3.83;;;;;;;;;;4840877;29;20485;-60
2023/01/01 10:26:57;;;;;;;7.90;2.63;;;;;;;;;;4841266;29;20040;-58
2023/01/01 10:29:27;;;;;;;5.07;2.40;;;;;;;;;;4846058;29;20042;-59
2023/01/01 10:31:54;;;;;;;7.63;2.70;;;;;;;;;;4838204;29;20441;-59
2023/01/01 10:34:31;;;;;;;9.90;2.92;;;;;;;;;;4846879;29;20033;-60
2023/01/01 10:36:58;;;;;;;8.13;2.40;;;;;;;;;;4844451;29;20485;-61
2023/01/01 10:39:24;;;;;;;8.85;2.65;;;;;;;;;;4866531;29;20048;-60
2023/01/01 10:41:50;;;;;;;8.68;2.65;;;;;;;;;;4849948;29;20037;-61
2023/01/01 10:44:18;;;;;;;6.18;2.85;;;;;;;;;;4836656;29;20413;-58
2023/01/01 10:46:47;;;;;;;7.32;2.90;;;;;;;;;;4872995;29;20526;-60
2023/01/01 10:49:14;;;;;;;5.50;2.53;;;;;;;;;;4848214;29;20407;-59
2023/01/01 10:51:44;;;;;;;6.40;2.97;;;;;;;;;;4843810;29;20041;-60
2023/01/01 10:54:36;;;;;;;6.28;2.80;;;;;;;;;;4849772;29;20572;-59
2023/01/01 10:57:13;;;;;;;5.13;2.60;;;;;;;;;;4841619;29;20143;-60
2023/01/01 10:59:39;;;;;;;6.63;2.58;;;;;;;;;;4842536;29;20041;-59
2023/01/01 11:02:15;;;;;;;8.20;2.60;;;;;;;;;;4859875;29;20037;-60
2023/01/01 11:04:41;;;;;;;8.43;2.85;;;;;;;;;;4840561;29;20029;-59
2023/01/01 11:07:06;;;;;;;7.97;2.83;;;;;;;;;;4840561;29;20037;-59
2023/01/01 11:09:35;;;;;;;6.97;2.65;;;;;;;;;;4847639;29;20029;-60
2023/01/01 11:12:02;;;;;;;9.48;3.10;;;;;;;;;;4840019;29;20541;-59
2023/01/01 11:14:31;;;;;;;7.13;2.60;;;;;;;;;;4848144;29;20233;-59
2023/01/01 11:16:57;;;;;;;8.38;2.60;;;;;;;;;;4846284;29;20021;-59
2023/01/01 11:19:25;;;;;;;6.88;2.63;;;;;;;;;;4846675;29;20096;-58
2023/01/01 11:21:50;;;;;;;5.05;2.60;;;;;;;;;;4850575;29;20033;-59
2023/01/01 11:24:15;;;;;;;6.00;2.40;;;;;;;;;;4849843;29;20804;-59
2023/01/01 11:26:41;;;;;;;7.30;2.92;;;;;;;;;;4848552;29;20351;-59
2023/01/01 11:29:15;;;;;;;6.57;2.42;;;;;;;;;;4843307;29;20037;-60
2023/01/01 11:31:41;;;;;;;9.02;2.78;;;;;;;;;;4842855;29;20037;-60
2023/01/01 11:34:17;;;;;;;6.30;2.45;;;;;;;;;;4877607;29;20072;-60
2023/01/01 11:36:43;;;;;;;5.75;2.38;;;;;;;;;;4843314;29;20026;-60
2023/01/01 11:39:26;;;;;;;5.97;2.88;;;;;;;;;;4837685;29;20057;-60
2023/01/01 11:41:53;;;;;;;7.60;2.85;;;;;;;;;;4850550;29;20037;-59
2023/01/01 11:44:40;;;;;;;8.30;2.55;;;;;;;;;;4840845;29;20468;-60
2023/01/01 11:47:07;;;;;;;9.55;2.90;;;;;;;;;;4876041;29;20044;-60
2023/01/01 11:49:32;;;;;;;6.90;2.40;;;;;;;;;;4844507;29;20045;-60
2023/01/01 11:51:58;;;;;;;7.67;2.60;;;;;;;;;;4844639;29;20033;-60
2023/01/01 11:54:28;;;;;;;6.20;2.87;;;;;;;;;;4850020;29;20129;-61
2023/01/01 11:57:04;;;;;;;7.28;2.80;;;;;;;;;;4843536;29;20124;-60
2023/01/01 11:59:30;;;;;;;;;;;;;;;;;;4840548;29;20137;-61
2023/01/01 12:02:01;;;;;;;6.90;2.33;;;;;;;;;;4849051;29;20581;-60
2023/01/01 12:04:35;;;;;;;7.32;2.83;;;;;;;;;;4841854;29;20072;-60
2023/01/01 12:07:05;;;;;;;8.60;2.67;;;;;;;;;;4875649;29;20040;-60
2023/01/01 12:09:44;;;;;;;6.35;2.35;;;;;;;;;;4843717;29;20037;-60
2023/01/01 12:12:19;;;;;;;7.00;2.90;;;;;;;;;;4845121;29;20093;-60
2023/01/01 12:14:45;;;;;;;7.88;2.78;;;;;;;;;;4849621;29;20037;-60
2023/01/01 12:17:18;;;;;;;6.87;2.63;;;;;;;;;;4845127;29;20026;-60
2023/01/01 12:19:54;;;;;;;7.55;2.60;;;;;;;;;;4842463;29;20037;-60
2023/01/01 12:22:20;;;;;;;6.85;2.63;;;;;;;;;;4848716;29;20040;-60
2023/01/01 12:24:46;;;;;;;7.30;2.30;;;;;;;;;;4842366;29;20042;-61
2023/01/01 12:27:17;;;;;;;10.30;2.83;;;;;;;;;;4849215;29;20505;-61
2023/01/01 12:29:51;;;;;;;6.05;2.17;;;;;;;;;;4842751;29;20817;-61
2023/01/01 12:32:17;;;;;;;7.05;2.50;;;;;;;;;;4843510;29;20093;-61
2023/01/01 12:35:01;;;;;;;8.37;2.50;;;;;;;;;;4847712;29;20036;-61
2023/01/01 12:37:45;;;;;;;5.72;2.45;;;;;;;;;;4842093;29;20049;-61
2023/01/01 12:40:28;;;;;;;7.28;3.00;;;;;;;;;;4841245;29;20038;-61
2023/01/01 12:42:59;;;;;;;7.28;2.67;;;;;;;;;;4848721;29;20036;-60
2023/01/01 12:45:30;;;;;;;11.75;2.75;;;;;;;;;;4844212;29;20124;-61
2023/01/01 12:48:01;;;;;;;7.55;2.30;;;;;;;;;;4840569;29;20030;-61
2023/01/01 12:50:32;;;;;;;7.50;2.42;;;;;;;;;;4845683;29;20045;-60
2023/01/01 12:52:58;;;;;;;8.85;2.88;;;;;;;;;;4839446;29;20528;-61
2023/01/01 12:55:23;;;;;;;6.57;2.50;;;;;;;;;;4846691;29;20035;-62
2023/01/01 12:58:04;;;;;;;7.37;2.53;;;;;;;;;;4840330;29;20038;-62
2023/01/01 13:00:30;;;;;;;12.02;3.00;;;;;;;;;;4869459;29;20141;-62
2023/01/01 13:03:02;;;;;;;5.70;2.70;;;;;;;;;;4847527;29;20026;-61
2023/01/01 13:05:34;;;;;;;12.25;3.30;;;;;;;;;;4841655;29;20063;-62
2023/01/01 13:08:00;;;;;;;9.32;2.58;;;;;;;;;;4841757;29;20152;-60
2023/01/01 13:10:27;;;;;;;10.65;2.47;;;;;;;;;;4845917;29;20133;-61
2023/01/01 13:12:54;;;;;;;8.40;2.90;;;;;;;;;;4842906;29;20068;-61
2023/01/01 13:15:38;;;;;;;7.60;2.70;;;;;;;;;;4846916;29;20486;-61
2023/01/01 13:18:07;;;;;;;7.50;2.85;;;;;;;;;;4842374;29;20476;-61
2023/01/01 13:20:34;;;;;;;7.90;2.75;;;;;;;;;;4839887;29;20029;-61
2023/01/01 13:23:00;;;;;;;10.20;3.13;;;;;;;;;;4847880;29;20105;-62
2023/01/01 13:25:25;;;;;;;7.47;2.70;;;;;;;;;;4841417;29;20477;-61
2023/01/01 13:27:58;;;;;;;8.70;2.70;;;;;;;;;;4848298;29;20041;-62
2023/01/01 13:30:40;;;;;;;7.70;2.70;;;;;;;;;;4843954;29;20448;-62
2023/01/01 13:33:28;;;;;;;7.47;2.58;;;;;;;;;;4839314;29;20041;-61
2023/01/01 13:36:11;;;;;;;6.70;2.55;;;;;;;;;;4848186;29;20139;-61
2023/01/01 13:38:49;;;;;;;7.15;2.63;;;;;;;;;;4845412;29;20344;-61
2023/01/01 13:41:29;;;;;;;8.48;2.58;;;;;;;;;;4841827;29;20405;-62
2023/01/01 13:43:58;;;;;;;11.95;3.17;;;;;;;;;;4847277;29;20503;-60
2023/01/01 13:46:36;;;;;;;6.82;2.63;;;;;;;;;;4873202;29;20037;-61
2023/01/01 13:49:14;;;;;;;8.18;2.92;;;;;;;;;;4841808;29;20120;-63
2023/01/01 13:51:54;;;;;;;10.52;2.45;;;;;;;;;;4847775;29;20082;-61
2023/01/01 13:54:26;;;;;;;9.63;2.90;;;;;;;;;;4840120;29;20468;-62
2023/01/01 13:56:57;;;;;;;7.40;2.80;;;;;;;;;;4842680;29;20033;-61
2023/01/01 13:59:32;;;;;;;8.30;3.03;;;;;;;;;;4847550;29;20041;-61
2023/01/01 14:02:12;;;;;;;13.02;3.33;;;;;;;;;;4839372;29;20090;-61
2023/01/01 14:04:43;;;;;;;5.18;2.70;;;;;;;;;;4840407;29;20497;-61
2023/01/01 14:07:20;;;;;;;7.55;3.10;;;;;;;;;;4842706;29;20033;-61
2023/01/01 14:09:45;;;;;;;7.93;2.80;;;;;;;;;;4838296;29;20033;-62
2023/01/01 14:12:18;;;;;;;12.57;3.73;;;;;;;;;;4844183;29;20397;-61
2023/01/01 14:14:44;;;;;;;8.95;2.85;;;;;;;;;;4843336;29;20044;-62
2023/01/01 14:17:11;;;;;;;7.20;3.00;;;;;;;;;;4840374;29;20437;-62
2023/01/01 14:19:36;;;;;;;;;;;;;;;;;;4847570;29;20037;-60
2023/01/01 14:22:05;;;;;;;10.57;2.60;;;;;;;;;;4869713;29;19916;-62
2023/01/01 14:24:31;;;;;;;7.55;2.63;;;;;;;;;;4842922;29;20041;-60
2023/01/01 14:26:56;;;;;;;8.23;2.90;;;;;;;;;;4846054;29;20037;-62
2023/01/01 14:29:25;;;;;;;5.73;2.73;;;;;;;;;;4869759;29;20071;-61
2023/01/01 14:31:55;;;;;;;5.65;2.60;;;;;;;;;;4844296;29;20469;-61
2023/01/01 14:34:20;;;;;;;7.78;2.70;;;;;;;;;;4839152;29;20131;-61
2023/01/01 14:36:53;;;;;;;6.57;3.33;;;;;;;;;;4838251;29;20037;-61
2023/01/01 14:39:28;;;;;;;9.75;3.10;;;;;;;;;;4844897;29;20048;-59
2023/01/01 14:41:56;;;;;;;6.93;2.92;;;;;;;;;;4839753;29;20037;-59
2023/01/01 14:44:23;;;;;;;10.18;2.95;;;;;;;;;;4846727;29;20046;-61
2023/01/01 14:46:48;;;;;;;;;;;;;;;;;;4836662;29;20026;-59